createdAt,value
2019-03-10T00:04:03.953Z,1007.9
2019-03-10T00:14:51.663Z,1007.9
2019-03-10T00:25:04.532Z,1007.8
2019-03-10T00:35:49.350Z,1007.7
2019-03-10T00:46:37.128Z,1007.6
2019-03-10T00:56:49.003Z,1007.5
2019-03-10T01:07:37.449Z,1007.3
2019-03-10T01:18:25.007Z,1007.1
2019-03-10T01:28:38.534Z,1007.0
2019-03-10T01:40:01.032Z,1006.9
2019-03-10T01:50:49.026Z,1006.7
2019-03-10T02:01:38.618Z,1006.5
2019-03-10T02:12:31.501Z,1006.4
2019-03-10T02:23:17.744Z,1006.0
2019-03-10T02:34:05.778Z,1005.7
2019-03-10T02:44:18.365Z,1005.5
2019-03-10T02:55:11.528Z,1005.2
2019-03-10T03:05:58.060Z,1005.1
2019-03-10T03:16:45.391Z,1004.9
2019-03-10T03:26:57.168Z,1004.6
2019-03-10T03:37:10.946Z,1004.3
2019-03-10T03:47:25.216Z,1004.1
2019-03-10T03:58:11.888Z,1003.9
2019-03-10T04:08:23.345Z,1003.7
2019-03-10T04:19:10.173Z,1003.5
2019-03-10T04:29:25.712Z,1003.3
2019-03-10T04:40:11.536Z,1003.0
2019-03-10T04:50:24.143Z,1003.0
2019-03-10T05:01:12.576Z,1002.7
2019-03-10T05:11:26.960Z,1002.5
2019-03-10T05:22:20.842Z,1002.3
2019-03-10T05:32:38.465Z,1002.1
2019-03-10T05:43:41.405Z,1001.7
2019-03-10T05:53:53.378Z,1001.5
2019-03-10T06:04:11.418Z,1001.3
2019-03-10T06:15:12.167Z,1001.1
2019-03-10T06:25:26.936Z,1001.0
2019-03-10T06:36:21.053Z,1000.4
2019-03-10T06:47:09.126Z,1000.2
2019-03-10T06:57:56.514Z,1000.0
2019-03-10T07:08:18.007Z,999.8
2019-03-10T07:19:03.787Z,999.7
2019-03-10T07:29:52.559Z,999.5
2019-03-10T07:40:07.684Z,999.3
2019-03-10T07:51:05.343Z,999.0
2019-03-10T08:01:54.739Z,998.8
2019-03-10T08:12:11.296Z,998.6
2019-03-10T08:22:30.073Z,998.5
2019-03-10T08:32:43.747Z,998.2
2019-03-10T08:43:33.532Z,998.1
2019-03-10T08:53:47.690Z,997.8
2019-03-10T09:04:42.848Z,997.7
2019-03-10T09:14:59.348Z,997.4
2019-03-10T09:25:54.678Z,997.1
2019-03-10T09:36:45.506Z,997.0
2019-03-10T09:47:39.306Z,996.6
2019-03-10T09:58:46.724Z,996.3
2019-03-10T10:09:51.115Z,996.0
2019-03-10T10:20:08.713Z,995.8
2019-03-10T10:30:24.397Z,995.5
2019-03-10T10:41:14.631Z,995.3
2019-03-10T10:51:31.222Z,995.2
2019-03-10T11:02:21.007Z,994.9
2019-03-10T11:12:35.725Z,994.5
2019-03-10T11:22:50.937Z,994.4
2019-03-10T11:33:50.974Z,994.2
2019-03-10T11:44:57.575Z,994.0
2019-03-10T11:55:46.686Z,993.8
2019-03-10T12:06:34.205Z,993.9
2019-03-10T12:17:29.389Z,993.5
2019-03-10T12:27:43.156Z,992.9
2019-03-10T12:53:04.877Z,992.4
2019-03-10T13:03:58.461Z,992.4
2019-03-10T13:14:10.104Z,992.3
2019-03-10T13:25:30.991Z,991.8
2019-03-10T13:36:34.651Z,991.5
2019-03-10T13:46:52.363Z,991.4
2019-03-10T13:58:21.211Z,991.3
2019-03-10T14:09:37.190Z,991.8
2019-03-10T14:21:20.381Z,991.9
2019-03-10T14:32:48.027Z,992.3
2019-03-10T14:45:43.801Z,992.5
2019-03-10T14:56:31.302Z,992.6
2019-03-10T15:07:18.279Z,992.5
2019-03-10T15:18:12.413Z,993.7
2019-03-10T15:28:27.575Z,994.6
2019-03-10T15:39:28.843Z,995.6
2019-03-10T15:49:45.696Z,996.7
2019-03-10T16:00:30.813Z,998.0
2019-03-10T16:11:17.767Z,999.1
2019-03-10T16:21:33.630Z,1000.1
2019-03-10T16:31:49.828Z,1000.9
2019-03-10T16:42:37.279Z,1001.5
2019-03-10T16:52:53.270Z,1002.3
2019-03-10T17:03:09.651Z,1002.7
2019-03-10T17:13:29.706Z,1003.1
2019-03-10T17:24:14.604Z,1003.4
2019-03-10T17:34:26.059Z,1003.8
2019-03-10T17:44:41.511Z,1004.1
2019-03-10T17:54:51.338Z,1004.4
2019-03-10T18:05:02.467Z,1004.5
2019-03-10T18:15:14.561Z,1004.6
2019-03-10T18:25:59.472Z,1004.7
2019-03-10T18:36:12.830Z,1004.9
2019-03-10T18:46:58.154Z,1005.3
2019-03-10T18:58:34.441Z,1005.5
2019-03-10T19:09:40.392Z,1005.8
2019-03-10T19:20:50.387Z,1005.5
2019-03-10T19:31:30.074Z,1005.0
2019-03-10T19:43:03.862Z,1005.7
2019-03-10T19:54:15.375Z,1006.0
2019-03-10T20:04:41.590Z,1006.2
2019-03-10T20:15:45.774Z,1006.2
2019-03-10T20:37:38.080Z,1006.9
2019-03-10T20:48:03.953Z,1007.0
2019-03-10T20:59:15.982Z,1006.6
2019-03-10T21:09:27.499Z,1006.6
2019-03-10T21:19:40.147Z,1006.7
2019-03-10T21:29:53.406Z,1006.9
2019-03-10T21:40:38.117Z,1007.1
2019-03-10T21:50:49.399Z,1007.1
2019-03-10T22:01:02.793Z,1006.9
2019-03-10T22:11:16.080Z,1007.0
2019-03-10T22:21:29.374Z,1007.2
2019-03-10T22:31:42.414Z,1007.0
2019-03-10T22:41:55.408Z,1006.9
2019-03-10T22:52:08.707Z,1006.9
2019-03-10T23:02:22.358Z,1007.0
2019-03-10T23:12:35.646Z,1006.8
2019-03-10T23:22:49.892Z,1006.8
2019-03-10T23:33:00.726Z,1006.7
2019-03-10T23:43:12.221Z,1006.7
2019-03-10T23:53:25.214Z,1006.5
